Time;durP1;ratioP1;P1;durP2;ratioP2;P2;SDS_P1;SDS_P2;PMS_P1;PMS_P2;Temp;Humidity;BMP_temperature;BMP_pressure;BME280_temperature;BME280_humidity;BME280_pressure;Samples;Min_cycle;Max_cycle;Signal;HPM_P1;HPM_P2
2024/01/07 11:50:32;;;;;;;6.97;3.88;;;;;;;-144.05;59.92;57086.72;5135812;27;20162;-78
2024/01/07 11:53:00;;;;;;;7.60;4.43;;;;;;;-144.05;60.29;57084.59;5100207;28;20497;-79
2024/01/07 11:55:28;;;;;;;6.40;4.35;;;;;;;-144.05;60.67;57154.69;5114206;28;20035;-75
2024/01/07 11:57:56;;;;;;;7.13;3.83;;;0.30;99.90;;;-144.05;59.70;57118.59;5110642;28;20031;-77
2024/01/07 12:00:22;;;;;;;7.63;4.53;;;;;;;-144.05;60.56;57141.94;5115638;28;20389;-78
2024/01/07 12:02:48;;;;;;;7.93;3.83;;;;;;;-144.05;60.50;57124.97;5124265;22;20418;-80
2024/01/07 12:05:15;;;;;;;8.90;3.92;;;;;;;-144.05;61.59;57127.09;5050824;28;20037;-77
2024/01/07 12:07:42;;;;;;;8.95;4.13;;;;;;;-144.05;61.33;57107.97;5058983;28;20025;-78
2024/01/07 12:10:11;;;;;;;7.10;4.03;;;;;;;-144.05;60.82;57099.47;5050201;28;20032;-76
2024/01/07 12:12:40;;;;;;;9.07;4.22;;;;;;;-144.05;60.38;57120.72;5052804;28;20510;-78
2024/01/07 12:15:10;;;;;;;6.05;3.65;;;;;;;-144.05;61.13;57110.09;5070028;28;20020;-77
2024/01/07 12:17:40;;;;;;;4.93;3.67;;;;;;;-144.05;60.53;57105.84;5069392;28;20122;-79
2024/01/07 12:20:08;;;;;;;5.65;3.20;;;;;;;-144.05;60.59;57101.59;5070738;28;20474;-78
2024/01/07 12:22:38;;;;;;;5.70;3.28;;;1.40;99.90;;;-144.05;60.64;57139.81;5069206;28;20757;-79
2024/01/07 12:25:06;;;;;;;9.18;4.45;;;-3.40;99.90;;;-144.05;60.51;57144.06;5063426;28;20105;-78
2024/01/07 12:27:34;;;;;;;5.88;3.40;;;0.90;99.90;;;-144.05;60.13;57103.72;5068262;28;20033;-77
2024/01/07 12:30:02;;;;;;;6.80;4.45;;;;;;;-144.05;59.66;57131.31;5085601;28;20468;-80
2024/01/07 12:32:30;;;;;;;6.85;3.70;;;;;;;-144.05;60.11;57127.09;5069614;28;20060;-80
2024/01/07 12:35:01;;;;;;;7.00;3.50;;;-3.10;99.90;;;-144.05;60.43;57116.47;5069890;28;20024;-79
2024/01/07 12:37:28;;;;;;;6.47;3.95;;;;;;;-144.05;60.43;57129.22;5068034;28;20115;-77
2024/01/07 12:39:55;;;;;;;6.97;3.50;;;;;;;-144.05;59.01;57110.09;5068565;28;20536;-79
2024/01/07 12:42:22;;;;;;;6.72;3.40;;;;;;;-144.05;58.92;57095.22;5069066;28;20079;-79
2024/01/07 12:44:51;;;;;;;4.53;3.20;;;1.60;99.90;;;-144.05;58.65;57099.47;5068082;28;20048;-81
2024/01/07 12:47:17;;;;;;;4.82;3.38;;;;;;;-144.05;57.89;57114.34;5069239;28;20453;-77
2024/01/07 12:49:43;;;;;;;6.28;3.28;;;;;;;-144.05;57.73;57095.22;5068608;28;20036;-78
2024/01/07 12:52:10;;;;;;;7.72;3.75;;;;;;;-144.05;57.85;57110.09;5068570;28;20021;-79
2024/01/07 12:54:38;;;;;;;9.02;3.67;;;;;;;-144.05;58.99;57116.47;5101189;28;20032;-79
2024/01/07 12:57:05;;;;;;;4.95;3.00;;;;;;;-144.05;59.10;57105.84;5068132;28;20027;-78
2024/01/07 12:59:31;;;;;;;6.60;3.58;;;;;;;-144.05;58.85;57107.97;5069545;28;20020;-77
2024/01/07 13:01:57;;;;;;;6.60;3.35;;;;;;;-144.05;59.90;57137.69;5055308;28;20486;-78
2024/01/07 13:04:23;;;;;;;6.97;3.80;;;;;;;-144.05;58.71;57084.59;5054158;28;20029;-80
2024/01/07 13:06:50;;;;;;;4.93;3.30;;;;;;;-144.05;58.61;57105.84;5056250;28;20017;-78
2024/01/07 13:09:16;;;;;;;7.97;4.20;;;;;;;-144.05;58.29;57124.97;5062208;28;20140;-79
2024/01/07 13:11:42;;;;;;;6.00;3.78;;;;;;;-144.05;58.18;57150.44;5051648;28;20490;-78
2024/01/07 13:14:08;;;;;;;6.03;3.60;;;;;;;-144.05;58.21;57105.84;5051221;28;20032;-78
2024/01/07 13:16:35;;;;;;;5.75;3.22;;;;;;;-144.05;58.24;57124.97;5055123;28;20106;-79
2024/01/07 13:19:01;;;;;;;5.82;3.72;;;;;;;-144.05;58.44;57122.84;5054046;28;20024;-79
2024/01/07 13:21:27;;;;;;;5.47;3.33;;;;;;;-144.05;58.09;57120.72;5054934;28;20550;-81
2024/01/07 13:23:53;;;;;;;6.07;3.08;;;;;;;-144.05;56.90;57090.97;5054863;28;20020;-78
2024/01/07 13:26:20;;;;;;;5.85;3.30;;;;;;;-144.05;57.42;57105.84;5055166;28;20108;-81
2024/01/07 13:28:46;;;;;;;5.15;2.97;;;;;;;-144.05;57.36;57103.72;5055774;28;20434;-78
2024/01/07 13:31:14;;;;;;;8.82;3.78;;;;;;;-144.05;57.68;57103.72;5086851;28;20112;-80
2024/01/07 13:33:40;;;;;;;6.57;3.20;;;;;;;-144.05;57.18;57114.34;5087018;28;20111;-79
2024/01/07 13:36:09;;;;;;;3.22;2.60;;;;;;;-144.05;56.97;57120.72;5054534;28;20427;-81
2024/01/07 13:38:38;;;;;;;6.55;2.95;;;;;;;-144.05;55.97;57105.84;5055724;28;20040;-78
2024/01/07 13:41:04;;;;;;;5.22;2.42;;;;;;;-144.05;56.38;57135.56;5054369;28;20020;-77
2024/01/07 13:43:31;;;;;;;3.40;2.53;;;;;;;-144.05;56.59;57101.59;5055175;28;20124;-79
2024/01/07 13:45:57;;;;;;;4.78;2.33;;;;;;;-144.05;55.74;57127.09;5086568;28;20139;-79
2024/01/07 13:48:23;;;;;;;4.72;2.35;;;;;;;-144.05;56.03;57099.47;5053192;28;20029;-79
2024/01/07 13:50:49;;;;;;;3.83;2.80;;;;;;;-144.05;55.18;57129.22;5086516;28;20025;-79
2024/01/07 13:53:16;;;;;;;4.80;2.17;;;;;;;-144.05;55.46;57112.22;5085985;28;20017;-78
2024/01/07 13:55:42;;;;;;;6.05;2.70;;;;;;;-144.05;55.29;57122.84;5054331;28;20513;-77
2024/01/07 13:58:08;;;;;;;4.97;2.90;;;;;;;-144.05;55.09;57103.72;5053581;28;20025;-77
2024/01/07 14:00:34;;;;;;;5.43;2.85;;;;;;;-144.05;55.38;57112.22;5054004;28;20029;-77
2024/01/07 14:03:02;;;;;;;6.18;2.45;;;;;;;-144.05;55.82;57107.97;5049467;28;20083;-76
2024/01/07 14:05:28;;;;;;;4.95;2.58;;;;;;;-144.05;56.10;57133.44;5051260;28;20025;-80
2024/01/07 14:07:54;;;;;;;4.57;2.75;;;;;;;-144.05;55.50;57090.97;5085677;28;20438;-79
2024/01/07 14:10:20;;;;;;;2.20;1.92;;;;;;;-144.05;56.42;57112.22;5085156;28;20086;-79
2024/01/07 14:12:47;;;;;;;4.18;2.28;;;;;;;-144.05;56.06;57114.34;5052466;28;20041;-77
2024/01/07 14:15:13;;;;;;;2.75;2.22;;;;;;;-144.05;55.84;57097.34;5053515;28;20435;-79
2024/01/07 14:17:40;;;;;;;3.70;2.58;;;;;;;-144.05;56.32;57107.97;5053570;28;20473;-79
2024/01/07 14:20:09;;;;;;;7.03;3.03;;;-2.20;99.90;;;-144.05;56.71;57110.09;5053762;28;20470;-79
2024/01/07 14:22:36;;;;;;;3.15;2.30;;;;;;;-144.05;56.40;57110.09;5084662;28;20482;-77
2024/01/07 14:25:03;;;;;;;4.70;2.45;;;;;;;-144.05;56.54;57118.59;5053903;28;20017;-80
2024/01/07 14:27:29;;;;;;;3.20;2.00;;;;;;;-144.05;56.11;57112.22;5068554;28;20021;-80
2024/01/07 14:29:56;;;;;;;4.32;2.08;;;;;;;-144.05;55.79;57114.34;5054297;28;20028;-78
2024/01/07 14:32:23;;;;;;;3.10;2.17;;;;;;;-144.05;56.23;57122.84;5066594;28;20033;-80
2024/01/07 14:34:50;;;;;;;3.20;2.20;;;;;;;-144.05;56.12;57118.59;5054163;28;20021;-80
2024/01/07 14:37:16;;;;;;;3.35;2.30;;;;;;;-144.05;56.30;57112.22;5085392;28;20017;-79
2024/01/07 14:39:43;;;;;;;3.63;2.58;;;;;;;-144.05;56.39;57061.22;5053777;28;20017;-78
2024/01/07 14:42:09;;;;;;;2.35;2.05;;;;;;;-144.05;56.55;57120.72;5054060;28;20035;-79
2024/01/07 14:44:35;;;;;;;2.55;1.90;;;;;;;-144.05;55.36;57093.09;5053960;28;20465;-79
2024/01/07 14:47:01;;;;;;;2.80;1.88;;;;;;;-144.05;55.69;57101.59;5055000;28;20057;-81
2024/01/07 14:49:28;;;;;;;4.65;2.15;;;;;;;-144.05;55.31;57122.84;5055037;28;20025;-80
2024/01/07 14:51:54;;;;;;;2.92;2.00;;;;;;;-144.05;55.48;57129.22;5053822;28;20521;-79
2024/01/07 14:54:20;;;;;;;4.85;2.03;;;;;;;-144.05;54.92;57097.34;5053390;28;20025;-78
2024/01/07 14:56:46;;;;;;;2.28;1.80;;;;;;;-144.05;54.53;57103.72;5053867;28;20029;-76
2024/01/07 14:59:12;;;;;;;3.25;2.05;;;;;;;-144.05;55.08;57093.09;5083884;28;20021;-79
2024/01/07 15:01:41;;;;;;;2.03;1.63;;;;;;;-144.05;55.76;57080.34;5083464;28;20509;-79
2024/01/07 15:04:08;;;;;;;2.50;1.88;;;;;;;-144.05;55.79;57112.22;5053498;28;20028;-79
2024/01/07 15:06:43;;;;;;;3.15;1.70;;;;;;;-144.05;55.91;57112.22;5053170;28;20029;-78
2024/01/07 15:09:11;;;;;;;;;;;;;;;-144.05;55.68;57097.34;5054003;28;20025;-80
2024/01/07 15:11:41;;;;;;;5.05;2.38;;;;;;;-144.05;55.84;57120.72;5069082;28;19909;-80
2024/01/07 15:14:08;;;;;;;4.05;2.42;;;;;;;-144.05;55.89;57127.09;5069526;28;20062;-78
2024/01/07 15:16:36;;;;;;;4.25;2.20;;;2.20;99.90;;;-144.05;55.80;57137.69;5053451;28;20130;-79
2024/01/07 15:19:03;;;;;;;4.05;2.22;;;;;;;-144.05;55.89;57137.69;5054620;28;20108;-78
2024/01/07 15:21:30;;;;;;;4.03;2.35;;;;;;;-144.05;56.11;57152.56;5053527;28;20039;-77
2024/01/07 15:23:56;;;;;;;4.00;2.40;;;;;;;-144.05;56.55;57135.56;5054046;28;20661;-80
2024/01/07 15:26:22;;;;;;;5.82;2.28;;;;;;;-144.05;56.25;57118.59;5053615;28;20044;-80
2024/01/07 15:28:48;;;;;;;3.90;2.42;;;;;;;-144.05;56.69;57120.72;5069877;28;20033;-79
2024/01/07 15:31:15;;;;;;;3.58;2.67;;;;;;;-144.05;56.66;57120.72;5053669;28;20090;-77
2024/01/07 15:33:42;;;;;;;3.63;2.33;;;;;;;-144.05;56.76;57139.81;5054031;28;20036;-77
2024/01/07 15:36:08;;;;;;;5.85;3.60;;;;;;;-144.05;56.93;57076.09;5084157;28;20029;-80
2024/01/07 15:38:34;;;;;;;6.75;2.90;;;;;;;-144.05;56.78;57122.84;5057857;28;20077;-78
2024/01/07 15:41:00;;;;;;;6.18;3.15;;;;;;;-144.05;57.29;57150.44;5059492;28;20024;-76
2024/01/07 15:43:27;;;;;;;3.35;2.38;;;;;;;-144.05;57.48;57116.47;5055208;28;20083;-80
2024/01/07 15:45:53;;;;;;;5.65;2.40;;;;;;;-144.05;57.13;57131.31;5084834;28;20029;-78
2024/01/07 15:48:19;;;;;;;6.32;3.22;;;;;;;-144.05;56.80;57124.97;5053036;28;20037;-80
2024/01/07 15:50:45;;;;;;;2.88;2.20;;;;;;;-144.05;56.80;57107.97;5069415;28;20112;-79
2024/01/07 15:53:12;;;;;;;5.32;2.22;;;;;;;-144.05;56.67;57120.72;5053257;28;20044;-80
2024/01/07 15:55:38;;;;;;;5.38;2.47;;;;;;;-144.05;56.49;57122.84;5051707;28;20159;-81
2024/01/07 15:58:04;;;;;;;3.45;2.50;;;;;;;-144.05;56.59;57120.72;5053303;28;20417;-80
2024/01/07 16:00:30;;;;;;;5.13;2.88;;;;;;;-144.05;56.30;57112.22;5051997;28;20025;-78
2024/01/07 16:02:58;;;;;;;4.45;2.65;;;;;;;-144.05;57.09;57095.22;5051735;28;20102;-78
2024/01/07 16:05:24;;;;;;;5.43;2.35;;;;;;;-144.05;57.00;57167.44;5059575;28;20032;-80
2024/01/07 16:07:52;;;;;;;4.75;2.70;;;;;;;-144.05;56.99;57095.22;5056423;28;20025;-79
2024/01/07 16:10:18;;;;;;;4.30;2.65;;;;;;;-144.05;57.24;57095.22;5054382;28;20383;-79
2024/01/07 16:12:44;;;;;;;4.60;2.78;;;;;;;-144.05;57.32;57122.84;5053951;28;20060;-79
2024/01/07 16:15:10;;;;;;;4.60;2.80;;;;;;;-144.05;57.61;57093.09;5052245;28;20486;-81
2024/01/07 16:17:37;;;;;;;5.70;2.63;;;;;;;-144.05;58.41;57105.84;5051598;28;20033;-79
2024/01/07 16:20:03;;;;;;;6.50;3.17;;;;;;;-144.05;58.27;57105.84;5052585;28;20365;-83
2024/01/07 16:22:30;;;;;;;9.65;3.53;;;;;;;-144.05;58.65;57086.72;5054258;28;20032;-80
2024/01/07 16:24:56;;;;;;;12.07;3.58;;;;;;;-144.05;58.64;57099.47;5057536;28;20482;-81
2024/01/07 16:27:23;;;;;;;4.80;2.67;;;;;;;-144.05;59.31;57120.72;5069423;28;20044;-83
2024/01/07 16:29:49;;;;;;;3.58;2.85;;;;;;;-144.05;59.14;57110.09;5055200;28;20029;-80
2024/01/07 16:32:16;;;;;;;6.65;3.03;;;;;;;-144.05;58.33;57129.22;5054083;28;20036;-79
2024/01/07 16:34:42;;;;;;;5.15;3.05;;;;;;;-144.05;58.94;57103.72;5056746;28;20036;-78
2024/01/07 16:37:08;;;;;;;4.95;3.47;;;;;;;-144.05;59.50;57093.09;5065285;28;20037;-80
2024/01/07 16:39:34;;;;;;;3.60;2.53;;;;;;;-144.05;59.77;57110.09;5066299;28;20098;-79
2024/01/07 16:42:01;;;;;;;5.28;2.92;;;;;;;-144.05;58.99;57103.72;5065427;28;20086;-81
2024/01/07 16:44:27;;;;;;;5.60;2.80;;;;;;;-144.05;59.37;57131.31;5069651;28;20084;-80
2024/01/07 16:46:53;;;;;;;5.32;3.45;;;;;;;-144.05;59.25;57112.22;5067573;28;20059;-78
2024/01/07 16:49:19;;;;;;;5.40;2.92;;;;;;;-144.05;59.05;57116.47;5063215;28;20041;-78
2024/01/07 16:51:46;;;;;;;6.25;2.88;;;;;;;-144.05;59.22;57116.47;5076480;28;20033;-78
2024/01/07 16:54:12;;;;;;;7.13;2.70;;;;;;;-144.05;59.32;57105.84;5088778;28;20529;-81
2024/01/07 16:56:38;;;;;;;5.07;2.95;;;;;;;-144.05;59.14;57093.09;5056358;28;20452;-78
2024/01/07 16:59:04;;;;;;;6.47;3.40;;;;;;;-144.05;59.07;57107.97;5058684;28;20051;-78
2024/01/07 17:01:30;;;;;;;4.28;2.60;;;;;;;-144.05;58.13;57120.72;5057260;28;20040;-79
2024/01/07 17:03:57;;;;;;;5.00;2.55;;;;;;;-144.05;57.79;57082.47;5057023;28;20028;-81
2024/01/07 17:06:26;;;;;;;4.38;2.55;;;;;;;-144.05;58.49;57112.22;5058295;28;20033;-80
2024/01/07 17:08:53;;;;;;;3.55;2.67;;;;;;;-144.05;57.97;57088.84;5072374;28;20025;-79
2024/01/07 17:11:19;;;;;;;4.10;2.20;;;;;;;-144.05;57.51;57122.84;5056716;28;20083;-79
2024/01/07 17:13:45;;;;;;;2.42;2.05;;;;;;;-144.05;57.74;57099.47;5057454;28;20025;-77
2024/01/07 17:16:11;;;;;;;8.35;2.85;;;;;;;-144.05;58.46;57114.34;5057571;28;20643;-78
2024/01/07 17:18:38;;;;;;;8.23;3.08;;;;;;;-144.05;58.00;57124.97;5086211;28;20028;-79
2024/01/07 17:21:04;;;;;;;3.78;2.25;;;;;;;-144.05;58.33;57105.84;5057204;28;20056;-80
2024/01/07 17:23:31;;;;;;;5.10;3.20;;;;;;;-144.05;58.95;57110.09;5056710;28;20060;-78
2024/01/07 17:25:57;;;;;;;5.15;3.17;;;;;;;-144.05;59.65;57137.69;5056911;28;20056;-78
2024/01/07 17:28:24;;;;;;;5.10;2.80;;;;;;;-144.05;59.93;57112.22;5056966;28;20032;-78
2024/01/07 17:30:50;;;;;;;7.18;3.50;;;;;;;-144.05;61.09;57127.09;5057275;28;20029;-79
2024/01/07 17:33:17;;;;;;;4.10;2.97;;;;;;;-144.05;61.51;57086.72;5055548;28;20029;-77
2024/01/07 17:35:43;;;;;;;4.65;3.10;;;;;;;-144.05;61.69;57105.84;5057290;28;20425;-80
2024/01/07 17:38:09;;;;;;;6.18;3.10;;;;;;;-144.05;62.77;57129.22;5085866;28;20029;-79
2024/01/07 17:40:35;;;;;;;7.97;3.58;;;;;;;-144.05;62.81;57099.47;5057198;28;20029;-80
2024/01/07 17:43:03;;;;;;;7.18;3.88;;;;;;;-144.05;62.74;57124.97;5056198;28;20128;-78
2024/01/07 17:45:29;;;;;;;5.85;3.25;;;;;;;-144.05;63.30;57110.09;5085867;28;20029;-77
2024/01/07 17:47:55;;;;;;;5.57;3.42;;;;;;;-144.05;62.54;57107.97;5056433;28;20402;-81
2024/01/07 17:50:22;;;;;;;5.65;3.28;;;;;;;-144.05;62.91;57105.84;5084868;28;20028;-81
2024/01/07 17:52:49;;;;;;;8.15;3.15;;;;;;;-144.05;63.23;57086.72;5056334;28;20029;-80
2024/01/07 17:55:17;;;;;;;6.78;2.92;;;;;;;-144.05;63.55;57103.72;5055737;28;20064;-81
2024/01/07 17:57:44;;;;;;;7.50;3.20;;;;;;;-144.05;63.36;57141.94;5054390;28;20036;-81
2024/01/07 18:00:11;;;;;;;4.65;3.00;;;;;;;-144.05;62.97;57090.97;5058061;28;20032;-78
2024/01/07 18:02:39;;;;;;;6.53;3.60;;;;;;;-144.05;62.99;57105.84;5056039;28;20333;-82
2024/01/07 18:05:05;;;;;;;7.88;3.47;;;;;;;-144.05;63.20;57116.47;5058896;28;20020;-77
2024/01/07 18:07:32;;;;;;;6.05;3.83;;;;;;;-144.05;63.26;57093.09;5062574;28;20036;-75
2024/01/07 18:09:58;;;;;;;6.93;3.08;;;;;;;-144.05;63.06;57127.09;5063684;28;20118;-77
2024/01/07 18:12:24;;;;;;;6.97;3.30;;;;;;;-144.05;63.46;57120.72;5056909;28;20405;-79
2024/01/07 18:14:51;;;;;;;7.53;3.30;;;;;;;-144.05;63.70;57139.81;5056298;28;20049;-77
2024/01/07 18:17:17;;;;;;;4.88;3.50;;;;;;;-144.05;63.58;57118.59;5056586;28;20083;-78
2024/01/07 18:19:43;;;;;;;8.80;4.00;;;;;;;-144.05;64.09;57120.72;5055177;28;20342;-80
2024/01/07 18:22:09;;;;;;;7.18;3.55;;;;;;;-144.05;63.91;57110.09;5055924;28;20038;-78
2024/01/07 18:24:36;;;;;;;6.32;3.70;;;;;;;-144.05;63.72;57141.94;5053502;28;20110;-78
2024/01/07 18:27:02;;;;;;;7.78;3.60;;;;;;;-144.05;64.08;57133.44;5055789;28;20047;-78
2024/01/07 18:29:28;;;;;;;5.75;3.72;;;;;;;-144.05;63.62;57122.84;5083722;28;20035;-77
2024/01/07 18:31:55;;;;;;;7.10;3.78;;;;;;;-144.05;64.08;57099.47;5055762;28;20098;-76
2024/01/07 18:34:21;;;;;;;7.70;3.47;;;;;;;-144.05;64.16;57120.72;5054839;28;20033;-75
2024/01/07 18:36:52;;;;;;;7.70;4.00;;;;;;;-144.05;64.29;57103.72;5055944;28;20040;-77
2024/01/07 18:39:18;;;;;;;6.68;3.80;;;;;;;-144.05;64.62;57124.97;5055332;28;20062;-75
2024/01/07 18:41:46;;;;;;;7.07;4.07;;;;;;;-144.05;64.99;57161.06;5055159;28;20037;-75
2024/01/07 18:44:12;;;;;;;6.22;3.13;;;;;;;-144.05;64.87;57088.84;5055798;28;20119;-80
2024/01/07 18:46:38;;;;;;;7.55;3.63;;;;;;;-144.05;64.75;57131.31;5055616;28;20394;-78
2024/01/07 18:49:05;;;;;;;5.18;3.58;;;;;;;-144.05;64.45;57116.47;5054729;28;20037;-78
2024/01/07 18:51:32;;;;;;;6.68;3.85;;;;;;;-144.05;64.52;57120.72;5054513;28;20032;-77
2024/01/07 18:53:58;;;;;;;6.90;4.10;;;;;;;-144.05;64.79;57150.44;5055099;28;20439;-80
2024/01/07 18:56:24;;;;;;;6.15;4.00;;;;;;;-144.05;64.53;57139.81;5054134;28;20036;-81
2024/01/07 18:58:51;;;;;;;9.02;4.40;;;;;;;-144.05;64.56;57129.22;5056292;28;20040;-80
2024/01/07 19:01:17;;;;;;;14.48;6.50;;;;;;;-144.05;64.33;57137.69;5056308;28;20029;-78
2024/01/07 19:03:43;;;;;;;7.57;4.32;;;;;;;-144.05;64.74;57150.44;5053169;28;20359;-77
2024/01/07 19:06:10;;;;;;;7.50;3.92;;;;;;;-144.05;64.55;57133.44;5054830;28;20356;-80
2024/01/07 19:08:36;;;;;;;9.70;4.20;;;;;;;-144.05;64.60;57137.69;5053332;28;20462;-80
2024/01/07 19:11:03;;;;;;;6.88;3.70;;;;;;;-144.05;64.92;57154.69;5054548;28;20389;-79
2024/01/07 19:13:30;;;;;;;7.70;5.00;;;;;;;-144.05;64.57;57118.59;5053325;28;20060;-80
2024/01/07 19:15:56;;;;;;;7.55;3.92;;;;;;;-144.05;64.42;57107.97;5054191;28;20057;-81
2024/01/07 19:18:22;;;;;;;7.22;4.28;;;;;;;-144.05;64.46;57158.94;5055254;28;20048;-79
2024/01/07 19:20:48;;;;;;;7.22;4.18;;;;;;;-144.05;64.50;57122.84;5069853;28;20095;-81
2024/01/07 19:23:14;;;;;;;8.70;4.57;;;;;;;-144.05;64.59;57112.22;5052469;28;20067;-81
2024/01/07 19:25:41;;;;;;;9.05;4.30;;;;;;;-144.05;64.77;57139.81;5075204;28;20053;-81
2024/01/07 19:28:07;;;;;;;10.50;4.38;;;;;;;-144.05;64.38;57152.56;5080082;28;20049;-81
2024/01/07 19:30:33;;;;;;;6.07;3.92;;;;;;;-144.05;64.28;57144.06;5055133;28;20025;-81
2024/01/07 19:33:02;;;;;;;10.35;4.82;;;;;;;-144.05;63.84;57161.06;5052906;28;20041;-79
2024/01/07 19:35:29;;;;;;;7.43;5.00;;;;;;;-144.05;64.09;57154.69;5054975;28;20029;-81
2024/01/07 19:37:59;;;;;;;7.53;4.40;;;;;;;-144.05;64.14;57129.22;5053489;28;20487;-80
2024/01/07 19:40:27;;;;;;;5.65;3.63;;;1.60;99.90;;;-144.05;64.19;57141.94;5073745;28;20029;-80
2024/01/07 19:42:54;;;;;;;8.07;4.25;;;;;;;-144.05;63.94;57139.81;5055248;28;20491;-79
2024/01/07 19:45:22;;;;;;;7.60;4.03;;;;;;;-144.05;63.94;57137.69;5053050;28;20035;-80
2024/01/07 19:47:48;;;;;;;8.85;4.03;;;;;;;-144.05;63.98;57118.59;5053412;28;20092;-80
2024/01/07 19:50:14;;;;;;;7.72;4.40;;;;;;;-144.05;63.74;57133.44;5054874;28;20112;-81
2024/01/07 19:52:41;;;;;;;8.60;4.30;;;;;;;-144.05;64.27;57154.69;5082030;28;20094;-81
2024/01/07 19:55:09;;;;;;;11.55;4.80;;;1.40;99.90;;;-144.05;64.31;57146.19;5055325;28;20025;-81
2024/01/07 19:57:37;;;;;;;8.23;4.80;;;1.20;99.90;;;-144.05;63.97;57158.94;5058844;28;20055;-80
2024/01/07 20:00:03;;;;;;;9.82;4.35;;;;;;;-144.05;64.11;57127.09;5070022;28;20033;-80
2024/01/07 20:02:30;;;;;;;8.55;4.32;;;;;;;-144.05;64.28;57101.59;5059031;28;20033;-80
2024/01/07 20:04:57;;;;;;;11.45;4.50;;;;;;;-144.05;64.45;57137.69;5057806;28;20033;-80
2024/01/07 20:07:24;;;;;;;8.25;4.13;;;;;;;-144.05;64.45;57152.56;5064949;28;20056;-82
2024/01/07 20:09:50;;;;;;;6.80;4.15;;;;;;;-144.05;64.32;57148.31;5054327;28;20505;-80
2024/01/07 20:12:16;;;;;;;6.30;4.03;;;;;;;-144.05;64.43;57129.22;5057730;28;20096;-80
2024/01/07 20:14:43;;;;;;;7.05;4.32;;;;;;;-144.05;64.45;57118.59;5057655;28;20090;-80
2024/01/07 20:17:09;;;;;;;8.05;3.97;;;;;;;-144.05;64.24;57154.69;5058833;28;20029;-80
2024/01/07 20:19:37;;;;;;;10.32;4.88;;;;;;;-144.05;64.43;57110.09;5057792;28;20124;-80
2024/01/07 20:22:04;;;;;;;8.30;4.63;;;;;;;-144.05;64.32;57141.94;5068133;28;20167;-81
2024/01/07 20:24:30;;;;;;;8.93;4.72;;;;;;;-144.05;64.84;57154.69;5057611;28;20218;-80
2024/01/07 20:26:57;;;;;;;8.48;5.13;;;;;;;-144.05;65.20;57163.19;5058549;28;20530;-80
2024/01/07 20:29:23;;;;;;;8.65;4.38;;;;;;;-144.05;64.67;57154.69;5051896;28;20029;-80
2024/01/07 20:31:50;;;;;;;7.78;4.63;;;;;;;-144.05;64.50;57120.72;5057705;28;20029;-82
2024/01/07 20:34:18;;;;;;;8.73;4.68;;;;;;;-144.05;64.71;57133.44;5065809;28;20024;-79
2024/01/07 20:36:46;;;;;;;10.75;5.22;;;;;;;-144.05;64.57;57139.81;5059134;28;20029;-82
2024/01/07 20:39:12;;;;;;;9.43;4.45;;;;;;;-144.05;64.52;57118.59;5055280;28;20086;-82
2024/01/07 20:42:03;;;;;;;8.20;4.32;;;;;;;-144.05;64.57;57146.19;5053591;28;20546;-80
2024/01/07 20:44:29;;;;;;;8.75;4.25;;;;;;;-144.05;64.56;57122.84;5069888;28;20489;-80
2024/01/07 20:46:56;;;;;;;8.63;4.68;;;;;;;-144.05;64.59;57124.97;5052543;28;20025;-79
2024/01/07 20:49:22;;;;;;;10.20;5.20;;;;;;;-144.05;64.92;57099.47;5054386;28;20068;-81
2024/01/07 20:51:48;;;;;;;9.43;4.47;;;;;;;-144.05;64.72;57129.22;5050092;28;20543;-83
2024/01/07 20:54:15;;;;;;;10.57;5.03;;;;;;;-144.05;64.87;57131.31;5051066;28;20390;-83
2024/01/07 20:56:41;;;;;;;7.05;4.72;;;;;;;-144.05;65.11;57165.31;5044920;28;20028;-81
2024/01/07 20:59:07;;;;;;;8.98;4.85;;;;;;;-144.05;64.87;57122.84;5080253;28;20029;-81
2024/01/07 21:01:34;;;;;;;10.02;4.93;;;;;;;-144.05;64.57;57163.19;5054182;28;20112;-82
2024/01/07 21:04:00;;;;;;;8.38;5.60;;;;;;;-144.05;64.77;57163.19;5052797;28;20044;-81
2024/01/07 21:06:26;;;;;;;7.85;4.97;;;;;;;-144.05;64.92;57110.09;5079884;28;20548;-81
2024/01/07 21:08:53;;;;;;;10.20;5.18;;;;;;;-144.05;65.01;57141.94;5054457;28;20120;-82
2024/01/07 21:11:20;;;;;;;7.95;4.93;;;;;;;-144.05;64.94;57129.22;5080268;28;20511;-82
2024/01/07 21:13:47;;;;;;;9.40;5.05;;;;;;;-144.05;65.23;57148.31;5053125;28;20094;-83
2024/01/07 21:16:13;;;;;;;10.18;5.15;;;;;;;-144.05;65.00;57165.31;5054122;28;20350;-81
2024/01/07 21:18:40;;;;;;;11.68;5.38;;;;;;;-144.05;65.10;57139.81;5080017;28;20025;-82
2024/01/07 21:21:07;;;;;;;11.27;6.22;;;;;;;-144.05;64.95;57144.06;5080182;28;20121;-83
2024/01/07 21:23:38;;;;;;;8.23;5.30;;;;;;;-144.05;65.80;57137.69;5068026;28;20033;-83
2024/01/07 21:26:06;;;;;;;11.43;6.43;;;;;;;-144.05;65.72;57165.31;5054051;28;20482;-82
2024/01/07 21:28:34;;;;;;;10.20;5.75;;;;;;;-144.05;65.46;57120.72;5052605;28;20060;-80
2024/01/07 21:31:02;;;;;;;10.70;5.88;;;;;;;-144.05;65.49;57144.06;5052247;28;20028;-81
2024/01/07 21:33:30;;;;;;;11.38;6.30;;;;;;;-144.05;65.36;57135.56;5052724;28;20391;-81
2024/01/07 21:35:58;;;;;;;12.35;6.72;;;;;;;-144.05;65.24;57169.56;5054012;28;20040;-81
2024/01/07 21:38:28;;;;;;;11.68;6.28;;;;;;;-144.05;65.02;57095.22;5052515;28;20098;-80
2024/01/07 21:40:55;;;;;;;13.27;6.32;;;;;;;-144.05;65.48;57144.06;5051426;28;20111;-82
2024/01/07 21:43:22;;;;;;;11.93;6.25;;;;;;;-144.05;65.06;57133.44;5049407;28;20088;-82
2024/01/07 21:45:48;;;;;;;9.77;5.85;;;;;;;-144.05;64.85;57114.34;5052196;28;20029;-83
2024/01/07 21:48:15;;;;;;;8.48;5.15;;;;;;;-144.05;64.74;57122.84;5053456;28;20037;-83
2024/01/07 21:50:41;;;;;;;10.95;6.35;;;;;;;-144.05;64.70;57124.97;5068742;28;20119;-81
2024/01/07 21:53:07;;;;;;;12.55;5.15;;;;;;;-144.05;64.08;57105.84;5079881;28;20402;-81
2024/01/07 21:55:37;;;;;;;8.23;5.30;;;;;;;-144.05;63.69;57141.94;5054958;28;20047;-83
2024/01/07 21:58:03;;;;;;;8.93;5.13;;;;;;;-144.05;63.26;57141.94;5054886;28;20500;-83
2024/01/07 22:00:29;;;;;;;10.82;5.20;;;;;;;-144.05;62.61;57112.22;5074274;28;20021;-82
2024/01/07 22:02:55;;;;;;;7.20;4.30;;;;;;;-144.05;62.25;57133.44;5051697;28;20124;-83
2024/01/07 22:05:22;;;;;;;8.02;4.65;;;;;;;-144.05;62.16;57135.56;5051907;28;20379;-82
2024/01/07 22:07:49;;;;;;;8.80;4.80;;;;;;;-144.05;62.26;57122.84;5049209;28;20474;-82
2024/01/07 22:10:16;;;;;;;6.72;4.53;;;;;;;-144.05;61.82;57090.97;5078033;28;20037;-82
2024/01/07 22:12:43;;;;;;;10.90;4.70;;;;;;;-144.05;61.26;57129.22;5064577;28;20033;-81
2024/01/07 22:15:09;;;;;;;7.10;4.47;;;;;;;-144.05;60.94;57124.97;5078327;28;20028;-84
2024/01/07 22:17:35;;;;;;;5.85;3.92;;;;;;;-144.05;61.02;57110.09;5052640;28;20478;-81
2024/01/07 22:20:04;;;;;;;9.43;5.57;;;;;;;-144.05;60.89;57137.69;5051359;28;20028;-82
2024/01/07 22:22:30;;;;;;;8.02;4.88;;;;;;;-144.05;61.21;57131.31;5052450;28;20028;-83
2024/01/07 22:24:56;;;;;;;9.73;4.95;;;;;;;-144.05;61.11;57139.81;5051358;28;20021;-82
2024/01/07 22:27:23;;;;;;;6.75;4.68;;;;;;;-144.05;61.15;57146.19;5051212;28;20489;-82
2024/01/07 22:29:49;;;;;;;8.30;4.63;;;;;;;-144.05;61.04;57131.31;5052474;28;20055;-83
2024/01/07 22:32:15;;;;;;;8.10;4.72;;;;;;;-144.05;61.04;57120.72;5047777;28;20104;-83
2024/01/07 22:34:41;;;;;;;9.63;4.40;;;;;;;-144.05;61.20;57131.31;5072905;28;20033;-82
2024/01/07 22:37:07;;;;;;;8.70;4.95;;;;;;;-144.05;60.93;57124.97;5046331;28;20021;-81
2024/01/07 22:39:34;;;;;;;7.18;4.70;;;;;;;-144.05;61.02;57161.06;5051198;28;20431;-80
2024/01/07 22:42:00;;;;;;;6.82;4.53;;;;;;;-144.05;60.62;57116.47;5050073;28;20117;-82
2024/01/07 22:44:26;;;;;;;12.77;5.90;;;;;;;-144.05;60.55;57135.56;5076743;28;20135;-82
2024/01/07 22:46:52;;;;;;;9.45;4.20;;;;;;;-144.05;60.23;57141.94;5067203;28;20044;-83
2024/01/07 22:49:19;;;;;;;8.70;4.78;;;;;;;-144.05;60.30;57131.31;5050451;28;20056;-81
2024/01/07 22:51:46;;;;;;;8.48;3.95;;;;;;;-144.05;60.43;57129.22;5050200;28;20067;-80
2024/01/07 22:54:12;;;;;;;5.43;3.95;;;;;;;-144.05;60.08;57131.31;5067028;28;20047;-80
2024/01/07 22:56:44;;;;;;;7.10;4.63;;;;;;;-144.05;59.86;57118.59;5077181;28;20513;-81
2024/01/07 22:59:13;;;;;;;6.40;4.00;;;1.60;99.90;;;-144.05;59.91;57116.47;5069806;28;20043;-80
2024/01/07 23:01:40;;;;;;;7.93;4.35;;;;;;;-144.05;59.84;57131.31;5063910;28;20565;-83